Back to Top

Language: 

My Weather Underground Personal Weather Station Historical Data with Graphs...

Delerius Weather Station Historical Data
Daily Summary for January 3, 2017 Units:  Both    English   Metric
« Previous Day
Next Day »
Daily Weekly Monthly Yearly Custom
  High: Low: Average:
Temperature: 45.3 °F /  7.4 °C 35.6 °F /  2 °C 42.8 °F /  6 °C
Dew Point: 42.0 °F /  5.6 °C 33.0 °F /  0.6 °C 38.9 °F /  3.8 °C
Humidity: 92 % 81 % 86 %
Wind Speed: 24.0 mph /  38.6 km/h - 13.1 mph /  21.1 km/h
Wind Gust: 33.0 mph /  53.1 km/h - -
Wind:- - WNW
Pressure: 30.38 in /  1028.7 hPa 30.14 in /  1020.5 hPa -
Precipitation: 0.00 in /  0 mm    
Historical Graphs
 
 
Tabular Data for January 3, 2017
Time Temperature Dew Point Pressure Wind Wind Speed Wind Gust Humidity Rainfall Rate (Hourly) solar Conditions
00:00 35.9 °F /  2.2 °C 33.3 °F /  0.7 °C 30.38 in /  1028.7 hPa WNW 4.0 mph /  6.4 km/h 4.0 mph /  6.4 km/h 90 % 0.00 in /  0 mm 0 W/m2
00:05 35.9 °F /  2.2 °C 33.3 °F /  0.7 °C 30.38 in /  1028.7 hPa WNW 3.0 mph /  4.8 km/h 4.0 mph /  6.4 km/h 90 % 0.00 in /  0 mm 0 W/m2
00:15 36.0 °F /  2.2 °C 33.4 °F /  0.8 °C 30.37 in /  1028.3 hPa NW 3.0 mph /  4.8 km/h 3.0 mph /  4.8 km/h 90 % 0.00 in /  0 mm 0 W/m2
00:25 36.2 °F /  2.3 °C 33.5 °F /  0.8 °C 30.37 in /  1028.3 hPa NW 2.0 mph /  3.2 km/h 3.0 mph /  4.8 km/h 90 % 0.00 in /  0 mm 0 W/m2
00:30 36.1 °F /  2.3 °C 33.5 °F /  0.8 °C 30.37 in /  1028.3 hPa Calm     90 % 0.00 in /  0 mm 0 W/m2
00:35 36.0 °F /  2.2 °C 33.4 °F /  0.8 °C 30.37 in /  1028.3 hPa Calm     90 % 0.00 in /  0 mm 0 W/m2
00:45 35.8 °F /  2.1 °C 33.2 °F /  0.7 °C 30.36 in /  1028 hPa Calm     90 % 0.00 in /  0 mm 0 W/m2
00:50 35.7 °F /  2.1 °C 33.1 °F /  0.6 °C 30.37 in /  1028.3 hPa Calm     90 % 0.00 in /  0 mm 0 W/m2
00:55 35.6 °F /  2 °C 33.0 °F /  0.6 °C 30.36 in /  1028 hPa Calm     90 % 0.00 in /  0 mm 0 W/m2
01:05 35.6 °F /  2 °C 33.2 °F /  0.7 °C 30.36 in /  1028 hPa Calm   9.0 mph /  14.5 km/h 91 % 0.00 in /  0 mm 0 W/m2
01:10 35.6 °F /  2 °C 33.2 °F /  0.7 °C 30.36 in /  1028 hPa Calm   9.0 mph /  14.5 km/h 91 % 0.00 in /  0 mm 0 W/m2
01:15 35.7 °F /  2.1 °C 33.3 °F /  0.7 °C 30.35 in /  1027.7 hPa NW 1.0 mph /  1.6 km/h 9.0 mph /  14.5 km/h 91 % 0.00 in /  0 mm 0 W/m2
01:20 35.8 °F /  2.1 °C 33.4 °F /  0.8 °C 30.35 in /  1027.7 hPa NW 1.0 mph /  1.6 km/h 9.0 mph /  14.5 km/h 91 % 0.00 in /  0 mm 0 W/m2
01:30 36.5 °F /  2.5 °C 34.4 °F /  1.3 °C 30.35 in /  1027.7 hPa WNW 5.0 mph /  8 km/h 9.0 mph /  14.5 km/h 92 % 0.00 in /  0 mm 0 W/m2
01:35 37.0 °F /  2.8 °C 34.9 °F /  1.6 °C 30.35 in /  1027.7 hPa WNW 5.0 mph /  8 km/h 9.0 mph /  14.5 km/h 92 % 0.00 in /  0 mm 0 W/m2
01:40 37.4 °F /  3 °C 35.3 °F /  1.8 °C 30.35 in /  1027.7 hPa WNW 5.0 mph /  8 km/h 5.0 mph /  8 km/h 92 % 0.00 in /  0 mm 0 W/m2
01:45 37.7 °F /  3.2 °C 35.6 °F /  2 °C 30.35 in /  1027.7 hPa WNW 5.0 mph /  8 km/h 9.0 mph /  14.5 km/h 92 % 0.00 in /  0 mm 0 W/m2
01:50 38.0 °F /  3.3 °C 35.9 °F /  2.2 °C 30.35 in /  1027.7 hPa West 5.0 mph /  8 km/h 9.0 mph /  14.5 km/h 92 % 0.00 in /  0 mm 0 W/m2
02:00 38.3 °F /  3.5 °C 35.9 °F /  2.2 °C 30.34 in /  1027.3 hPa WNW 5.0 mph /  8 km/h 9.0 mph /  14.5 km/h 91 % 0.00 in /  0 mm 0 W/m2
02:05 38.4 °F /  3.6 °C 36.0 °F /  2.2 °C 30.34 in /  1027.3 hPa WNW 4.0 mph /  6.4 km/h 9.0 mph /  14.5 km/h 91 % 0.00 in /  0 mm 0 W/m2
02:15 38.3 °F /  3.5 °C 35.9 °F /  2.2 °C 30.33 in /  1027 hPa Calm   9.0 mph /  14.5 km/h 91 % 0.00 in /  0 mm 0 W/m2
02:20 38.2 °F /  3.4 °C 35.8 °F /  2.1 °C 30.33 in /  1027 hPa WNW 1.0 mph /  1.6 km/h 9.0 mph /  14.5 km/h 91 % 0.00 in /  0 mm 0 W/m2
02:25 38.4 °F /  3.6 °C 36.0 °F /  2.2 °C 30.33 in /  1027 hPa WNW 3.0 mph /  4.8 km/h 9.0 mph /  14.5 km/h 91 % 0.00 in /  0 mm 0 W/m2
02:30 38.7 °F /  3.7 °C 36.3 °F /  2.4 °C 30.33 in /  1027 hPa NW 5.0 mph /  8 km/h 9.0 mph /  14.5 km/h 91 % 0.00 in /  0 mm 0 W/m2
02:35 39.0 °F /  3.9 °C 36.6 °F /  2.6 °C 30.33 in /  1027 hPa West 6.0 mph /  9.7 km/h 13.0 mph /  20.9 km/h 91 % 0.00 in /  0 mm 0 W/m2
02:40 39.3 °F /  4.1 °C 36.9 °F /  2.7 °C 30.32 in /  1026.6 hPa WNW 7.0 mph /  11.3 km/h 7.0 mph /  11.3 km/h 91 % 0.00 in /  0 mm 0 W/m2
02:50 39.6 °F /  4.2 °C 36.9 °F /  2.7 °C 30.32 in /  1026.6 hPa WNW 9.0 mph /  14.5 km/h 9.0 mph /  14.5 km/h 90 % 0.00 in /  0 mm 0 W/m2
02:55 39.7 °F /  4.3 °C 37.0 °F /  2.8 °C 30.32 in /  1026.6 hPa West 8.0 mph /  12.9 km/h 9.0 mph /  14.5 km/h 90 % 0.00 in /  0 mm 0 W/m2
03:00 39.8 °F /  4.3 °C 36.8 °F /  2.7 °C 30.31 in /  1026.3 hPa WNW 9.0 mph /  14.5 km/h 10.0 mph /  16.1 km/h 89 % 0.00 in /  0 mm 0 W/m2
03:05 40.0 °F /  4.4 °C 37.0 °F /  2.8 °C 30.31 in /  1026.3 hPa WNW 10.0 mph /  16.1 km/h 13.0 mph /  20.9 km/h 89 % 0.00 in /  0 mm 0 W/m2
03:15 40.1 °F /  4.5 °C 37.1 °F /  2.8 °C 30.31 in /  1026.3 hPa West 12.0 mph /  19.3 km/h 12.0 mph /  19.3 km/h 89 % 0.00 in /  0 mm 0 W/m2
03:20 40.1 °F /  4.5 °C 37.1 °F /  2.8 °C 30.31 in /  1026.3 hPa West 12.0 mph /  19.3 km/h 12.0 mph /  19.3 km/h 89 % 0.00 in /  0 mm 0 W/m2
03:25 40.3 °F /  4.6 °C 37.3 °F /  2.9 °C 30.30 in /  1026 hPa West 11.0 mph /  17.7 km/h 12.0 mph /  19.3 km/h 89 % 0.00 in /  0 mm 0 W/m2
03:30 40.4 °F /  4.7 °C 37.4 °F /  3 °C 30.30 in /  1026 hPa West 11.0 mph /  17.7 km/h 14.0 mph /  22.5 km/h 89 % 0.00 in /  0 mm 0 W/m2
03:35 40.5 °F /  4.7 °C 37.2 °F /  2.9 °C 30.30 in /  1026 hPa West 12.0 mph /  19.3 km/h 14.0 mph /  22.5 km/h 88 % 0.00 in /  0 mm 0 W/m2
03:40 40.7 °F /  4.8 °C 37.4 °F /  3 °C 30.30 in /  1026 hPa West 12.0 mph /  19.3 km/h 12.0 mph /  19.3 km/h 88 % 0.00 in /  0 mm 0 W/m2
03:50 40.7 °F /  4.8 °C 37.4 °F /  3 °C 30.29 in /  1025.6 hPa WSW 13.0 mph /  20.9 km/h 16.0 mph /  25.7 km/h 88 % 0.00 in /  0 mm 0 W/m2
03:55 40.7 °F /  4.8 °C 37.4 °F /  3 °C 30.29 in /  1025.6 hPa WNW 14.0 mph /  22.5 km/h 16.0 mph /  25.7 km/h 88 % 0.00 in /  0 mm 0 W/m2
04:00 40.7 °F /  4.8 °C 37.4 °F /  3 °C 30.29 in /  1025.6 hPa West 14.0 mph /  22.5 km/h 14.0 mph /  22.5 km/h 88 % 0.00 in /  0 mm 0 W/m2
04:05 40.8 °F /  4.9 °C 37.5 °F /  3.1 °C 30.29 in /  1025.6 hPa West 14.0 mph /  22.5 km/h 15.0 mph /  24.1 km/h 88 % 0.00 in /  0 mm 0 W/m2
04:10 41.0 °F /  5 °C 37.7 °F /  3.2 °C 30.28 in /  1025.3 hPa West 14.0 mph /  22.5 km/h 14.0 mph /  22.5 km/h 88 % 0.00 in /  0 mm 0 W/m2
04:20 41.2 °F /  5.1 °C 37.9 °F /  3.3 °C 30.28 in /  1025.3 hPa NW 12.0 mph /  19.3 km/h 12.0 mph /  19.3 km/h 88 % 0.00 in /  0 mm 0 W/m2
04:25 41.3 °F /  5.2 °C 38.0 °F /  3.3 °C 30.28 in /  1025.3 hPa WNW 12.0 mph /  19.3 km/h 15.0 mph /  24.1 km/h 88 % 0.00 in /  0 mm 0 W/m2
04:30 41.4 °F /  5.2 °C 38.1 °F /  3.4 °C 30.28 in /  1025.3 hPa WNW 12.0 mph /  19.3 km/h 12.0 mph /  19.3 km/h 88 % 0.00 in /  0 mm 0 W/m2
04:35 41.4 °F /  5.2 °C 37.8 °F /  3.2 °C 30.28 in /  1025.3 hPa NW 12.0 mph /  19.3 km/h 12.0 mph /  19.3 km/h 87 % 0.00 in /  0 mm 0 W/m2
04:40 41.3 °F /  5.2 °C 37.7 °F /  3.2 °C 30.27 in /  1024.9 hPa WNW 13.0 mph /  20.9 km/h 13.0 mph /  20.9 km/h 87 % 0.00 in /  0 mm 0 W/m2
04:45 41.3 °F /  5.2 °C 37.7 °F /  3.2 °C 30.27 in /  1024.9 hPa NW 14.0 mph /  22.5 km/h 15.0 mph /  24.1 km/h 87 % 0.00 in /  0 mm 0 W/m2
04:55 41.2 °F /  5.1 °C 37.6 °F /  3.1 °C 30.27 in /  1024.9 hPa WNW 14.0 mph /  22.5 km/h 14.0 mph /  22.5 km/h 87 % 0.00 in /  0 mm 0 W/m2
05:00 41.2 °F /  5.1 °C 37.6 °F /  3.1 °C 30.27 in /  1024.9 hPa WNW 15.0 mph /  24.1 km/h 15.0 mph /  24.1 km/h 87 % 0.00 in /  0 mm 0 W/m2
05:05 41.1 °F /  5.1 °C 37.5 °F /  3.1 °C 30.27 in /  1024.9 hPa NW 12.0 mph /  19.3 km/h 15.0 mph /  24.1 km/h 87 % 0.00 in /  0 mm 0 W/m2
05:10 41.0 °F /  5 °C 37.4 °F /  3 °C 30.27 in /  1024.9 hPa WNW 10.0 mph /  16.1 km/h 11.0 mph /  17.7 km/h 87 % 0.00 in /  0 mm 0 W/m2
05:15 41.1 °F /  5.1 °C 37.5 °F /  3.1 °C 30.27 in /  1024.9 hPa WNW 12.0 mph /  19.3 km/h 12.0 mph /  19.3 km/h 87 % 0.00 in /  0 mm 0 W/m2
05:25 41.4 °F /  5.2 °C 37.5 °F /  3.1 °C 30.26 in /  1024.6 hPa WNW 15.0 mph /  24.1 km/h 15.0 mph /  24.1 km/h 86 % 0.00 in /  0 mm 0 W/m2
05:30 41.4 °F /  5.2 °C 37.5 °F /  3.1 °C 30.26 in /  1024.6 hPa NW 14.0 mph /  22.5 km/h 21.0 mph /  33.8 km/h 86 % 0.00 in /  0 mm 0 W/m2
05:40 41.5 °F /  5.3 °C 37.6 °F /  3.1 °C 30.26 in /  1024.6 hPa NW 14.0 mph /  22.5 km/h 14.0 mph /  22.5 km/h 86 % 0.00 in /  0 mm 0 W/m2
05:45 41.5 °F /  5.3 °C 37.6 °F /  3.1 °C 30.27 in /  1024.9 hPa WNW 14.0 mph /  22.5 km/h 15.0 mph /  24.1 km/h 86 % 0.00 in /  0 mm 0 W/m2
05:50 41.6 °F /  5.3 °C 37.7 °F /  3.2 °C 30.27 in /  1024.9 hPa WNW 14.0 mph /  22.5 km/h 19.0 mph /  30.6 km/h 86 % 0.00 in /  0 mm 0 W/m2
06:00 41.6 °F /  5.3 °C 37.4 °F /  3 °C 30.26 in /  1024.6 hPa WNW 12.0 mph /  19.3 km/h 12.0 mph /  19.3 km/h 85 % 0.00 in /  0 mm 0 W/m2
06:05 41.5 °F /  5.3 °C 37.3 °F /  2.9 °C 30.27 in /  1024.9 hPa NW 12.0 mph /  19.3 km/h 18.0 mph /  29 km/h 85 % 0.00 in /  0 mm 0 W/m2
06:10 41.6 °F /  5.3 °C 37.4 °F /  3 °C 30.27 in /  1024.9 hPa NW 13.0 mph /  20.9 km/h 13.0 mph /  20.9 km/h 85 % 0.00 in /  0 mm 0 W/m2
06:15 41.6 °F /  5.3 °C 37.4 °F /  3 °C 30.27 in /  1024.9 hPa NW 13.0 mph /  20.9 km/h 19.0 mph /  30.6 km/h 85 % 0.00 in /  0 mm 0 W/m2
06:25 41.7 °F /  5.4 °C 37.5 °F /  3.1 °C 30.27 in /  1024.9 hPa WNW 12.0 mph /  19.3 km/h 13.0 mph /  20.9 km/h 85 % 0.00 in /  0 mm 0 W/m2
06:35 41.7 °F /  5.4 °C 37.5 °F /  3.1 °C 30.28 in /  1025.3 hPa WNW 10.0 mph /  16.1 km/h 10.0 mph /  16.1 km/h 85 % 0.00 in /  0 mm 0 W/m2
06:40 41.8 °F /  5.4 °C 37.9 °F /  3.3 °C 30.28 in /  1025.3 hPa NNW 10.0 mph /  16.1 km/h 14.0 mph /  22.5 km/h 86 % 0.00 in /  0 mm 0 W/m2
06:45 41.9 °F /  5.5 °C 37.7 °F /  3.2 °C 30.28 in /  1025.3 hPa WNW 9.0 mph /  14.5 km/h 14.0 mph /  22.5 km/h 85 % 0.00 in /  0 mm 0 W/m2
06:50 42.1 °F /  5.6 °C 37.9 °F /  3.3 °C 30.28 in /  1025.3 hPa WNW 9.0 mph /  14.5 km/h 13.0 mph /  20.9 km/h 85 % 0.00 in /  0 mm 0 W/m2
06:55 42.2 °F /  5.7 °C 38.0 °F /  3.3 °C 30.28 in /  1025.3 hPa West 10.0 mph /  16.1 km/h 13.0 mph /  20.9 km/h 85 % 0.00 in /  0 mm 0 W/m2
07:05 42.3 °F /  5.7 °C 38.4 °F /  3.6 °C 30.28 in /  1025.3 hPa WSW 10.0 mph /  16.1 km/h 11.0 mph /  17.7 km/h 86 % 0.00 in /  0 mm 0 W/m2
07:10 42.4 °F /  5.8 °C 38.5 °F /  3.6 °C 30.28 in /  1025.3 hPa West 10.0 mph /  16.1 km/h 10.0 mph /  16.1 km/h 86 % 0.00 in /  0 mm 0 W/m2
07:15 42.5 °F /  5.8 °C 38.6 °F /  3.7 °C 30.27 in /  1024.9 hPa NW 12.0 mph /  19.3 km/h 12.0 mph /  19.3 km/h 86 % 0.00 in /  0 mm 0 W/m2
07:20 42.5 °F /  5.8 °C 38.6 °F /  3.7 °C 30.27 in /  1024.9 hPa WNW 12.0 mph /  19.3 km/h 20.0 mph /  32.2 km/h 86 % 0.00 in /  0 mm 0 W/m2
07:25 42.4 °F /  5.8 °C 38.5 °F /  3.6 °C 30.27 in /  1024.9 hPa NW 12.0 mph /  19.3 km/h 20.0 mph /  32.2 km/h 86 % 0.00 in /  0 mm 0 W/m2
07:30 42.4 °F /  5.8 °C 38.5 °F /  3.6 °C 30.27 in /  1024.9 hPa WNW 12.0 mph /  19.3 km/h 13.0 mph /  20.9 km/h 86 % 0.00 in /  0 mm 0 W/m2
07:40 42.5 °F /  5.8 °C 38.3 °F /  3.5 °C 30.27 in /  1024.9 hPa WNW 11.0 mph /  17.7 km/h 13.0 mph /  20.9 km/h 85 % 0.00 in /  0 mm 0 W/m2
07:45 42.5 °F /  5.8 °C 38.3 °F /  3.5 °C 30.27 in /  1024.9 hPa WNW 11.0 mph /  17.7 km/h 13.0 mph /  20.9 km/h 85 % 0.00 in /  0 mm 0 W/m2
07:50 42.5 °F /  5.8 °C 38.3 °F /  3.5 °C 30.27 in /  1024.9 hPa WNW 11.0 mph /  17.7 km/h 11.0 mph /  17.7 km/h 85 % 0.00 in /  0 mm 0 W/m2
07:55 42.4 °F /  5.8 °C 38.2 °F /  3.4 °C 30.27 in /  1024.9 hPa WNW 11.0 mph /  17.7 km/h 14.0 mph /  22.5 km/h 85 % 0.00 in /  0 mm 0 W/m2
08:00 42.4 °F /  5.8 °C 38.2 °F /  3.4 °C 30.27 in /  1024.9 hPa NW 11.0 mph /  17.7 km/h 11.0 mph /  17.7 km/h 85 % 0.00 in /  0 mm 0 W/m2
08:10 42.2 °F /  5.7 °C 38.0 °F /  3.3 °C 30.27 in /  1024.9 hPa WNW 9.0 mph /  14.5 km/h 11.0 mph /  17.7 km/h 85 % 0.00 in /  0 mm 0 W/m2
08:15 42.3 °F /  5.7 °C 38.4 °F /  3.6 °C 30.27 in /  1024.9 hPa WNW 10.0 mph /  16.1 km/h 11.0 mph /  17.7 km/h 86 % 0.00 in /  0 mm 0 W/m2
08:20 42.3 °F /  5.7 °C 38.4 °F /  3.6 °C 30.27 in /  1024.9 hPa WNW 9.0 mph /  14.5 km/h 9.0 mph /  14.5 km/h 86 % 0.00 in /  0 mm 0 W/m2
08:25 42.3 °F /  5.7 °C 38.4 °F /  3.6 °C 30.27 in /  1024.9 hPa West 9.0 mph /  14.5 km/h 15.0 mph /  24.1 km/h 86 % 0.00 in /  0 mm 0 W/m2
08:30 42.4 °F /  5.8 °C 38.2 °F /  3.4 °C 30.26 in /  1024.6 hPa West 10.0 mph /  16.1 km/h 10.0 mph /  16.1 km/h 85 % 0.00 in /  0 mm 5 W/m2
08:35 42.5 °F /  5.8 °C 38.3 °F /  3.5 °C 30.26 in /  1024.6 hPa WNW 10.0 mph /  16.1 km/h 10.0 mph /  16.1 km/h 85 % 0.00 in /  0 mm 5 W/m2
08:40 42.5 °F /  5.8 °C 38.3 °F /  3.5 °C 30.27 in /  1024.9 hPa NW 9.0 mph /  14.5 km/h 18.0 mph /  29 km/h 85 % 0.00 in /  0 mm 7 W/m2
08:45 42.6 °F /  5.9 °C 38.4 °F /  3.6 °C 30.27 in /  1024.9 hPa WNW 9.0 mph /  14.5 km/h 18.0 mph /  29 km/h 85 % 0.00 in /  0 mm 7 W/m2
08:55 42.7 °F /  5.9 °C 38.5 °F /  3.6 °C 30.27 in /  1024.9 hPa West 7.0 mph /  11.3 km/h 9.0 mph /  14.5 km/h 85 % 0.00 in /  0 mm 9 W/m2
09:00 42.8 °F /  6 °C 38.6 °F /  3.7 °C 30.27 in /  1024.9 hPa West 8.0 mph /  12.9 km/h 10.0 mph /  16.1 km/h 85 % 0.00 in /  0 mm 11 W/m2
09:05 42.9 °F /  6.1 °C 38.7 °F /  3.7 °C 30.26 in /  1024.6 hPa WNW 10.0 mph /  16.1 km/h 10.0 mph /  16.1 km/h 85 % 0.00 in /  0 mm 14 W/m2
09:10 42.9 °F /  6.1 °C 38.7 °F /  3.7 °C 30.26 in /  1024.6 hPa WNW 11.0 mph /  17.7 km/h 11.0 mph /  17.7 km/h 85 % 0.00 in /  0 mm 16 W/m2
09:20 42.9 °F /  6.1 °C 38.7 °F /  3.7 °C 30.26 in /  1024.6 hPa West 9.0 mph /  14.5 km/h 13.0 mph /  20.9 km/h 85 % 0.00 in /  0 mm 23 W/m2
09:25 43.0 °F /  6.1 °C 38.8 °F /  3.8 °C 30.26 in /  1024.6 hPa West 11.0 mph /  17.7 km/h 13.0 mph /  20.9 km/h 85 % 0.00 in /  0 mm 23 W/m2
09:30 43.0 °F /  6.1 °C 38.8 °F /  3.8 °C 30.26 in /  1024.6 hPa WNW 11.0 mph /  17.7 km/h 13.0 mph /  20.9 km/h 85 % 0.00 in /  0 mm 26 W/m2
09:35 43.1 °F /  6.2 °C 38.9 °F /  3.8 °C 30.25 in /  1024.3 hPa WNW 10.0 mph /  16.1 km/h 13.0 mph /  20.9 km/h 85 % 0.00 in /  0 mm 39 W/m2
09:40 43.1 °F /  6.2 °C 39.2 °F /  4 °C 30.25 in /  1024.3 hPa WNW 10.0 mph /  16.1 km/h 10.0 mph /  16.1 km/h 86 % 0.00 in /  0 mm 46 W/m2
09:50 43.2 °F /  6.2 °C 39.0 °F /  3.9 °C 30.25 in /  1024.3 hPa West 12.0 mph /  19.3 km/h 12.0 mph /  19.3 km/h 85 % 0.00 in /  0 mm 58 W/m2
09:55 43.2 °F /  6.2 °C 39.0 °F /  3.9 °C 30.25 in /  1024.3 hPa NW 12.0 mph /  19.3 km/h 14.0 mph /  22.5 km/h 85 % 0.00 in /  0 mm 58 W/m2
10:00 43.3 °F /  6.3 °C 39.1 °F /  3.9 °C 30.25 in /  1024.3 hPa WNW 14.0 mph /  22.5 km/h 14.0 mph /  22.5 km/h 85 % 0.00 in /  0 mm 67 W/m2
10:05 43.4 °F /  6.3 °C 39.2 °F /  4 °C 30.26 in /  1024.6 hPa West 15.0 mph /  24.1 km/h 15.0 mph /  24.1 km/h 85 % 0.00 in /  0 mm 79 W/m2
10:10 43.4 °F /  6.3 °C 39.2 °F /  4 °C 30.26 in /  1024.6 hPa West 16.0 mph /  25.7 km/h 20.0 mph /  32.2 km/h 85 % 0.00 in /  0 mm 67 W/m2
10:15 43.5 °F /  6.4 °C 39.0 °F /  3.9 °C 30.25 in /  1024.3 hPa WNW 16.0 mph /  25.7 km/h 20.0 mph /  32.2 km/h 84 % 0.00 in /  0 mm 70 W/m2
10:25 43.6 °F /  6.4 °C 39.1 °F /  3.9 °C 30.26 in /  1024.6 hPa West 13.0 mph /  20.9 km/h 14.0 mph /  22.5 km/h 84 % 0.00 in /  0 mm 53 W/m2
10:30 43.7 °F /  6.5 °C 39.2 °F /  4 °C 30.25 in /  1024.3 hPa West 13.0 mph /  20.9 km/h 16.0 mph /  25.7 km/h 84 % 0.00 in /  0 mm 62 W/m2
10:35 43.7 °F /  6.5 °C 39.2 °F /  4 °C 30.25 in /  1024.3 hPa West 14.0 mph /  22.5 km/h 16.0 mph /  25.7 km/h 84 % 0.00 in /  0 mm 65 W/m2
10:40 43.7 °F /  6.5 °C 39.2 °F /  4 °C 30.25 in /  1024.3 hPa West 15.0 mph /  24.1 km/h 15.0 mph /  24.1 km/h 84 % 0.00 in /  0 mm 56 W/m2
10:45 43.7 °F /  6.5 °C 39.2 °F /  4 °C 30.25 in /  1024.3 hPa West 14.0 mph /  22.5 km/h 15.0 mph /  24.1 km/h 84 % 0.00 in /  0 mm 62 W/m2
10:55 43.8 °F /  6.6 °C 39.6 °F /  4.2 °C 30.25 in /  1024.3 hPa WSW 11.0 mph /  17.7 km/h 13.0 mph /  20.9 km/h 85 % 0.00 in /  0 mm 79 W/m2
11:00 43.8 °F /  6.6 °C 39.6 °F /  4.2 °C 30.25 in /  1024.3 hPa West 12.0 mph /  19.3 km/h 12.0 mph /  19.3 km/h 85 % 0.00 in /  0 mm 95 W/m2
11:05 43.9 °F /  6.6 °C 39.7 °F /  4.3 °C 30.25 in /  1024.3 hPa West 14.0 mph /  22.5 km/h 14.0 mph /  22.5 km/h 85 % 0.00 in /  0 mm 95 W/m2
11:10 44.0 °F /  6.7 °C 39.8 °F /  4.3 °C 30.24 in /  1023.9 hPa West 13.0 mph /  20.9 km/h 16.0 mph /  25.7 km/h 85 % 0.00 in /  0 mm 83 W/m2
11:15 44.1 °F /  6.7 °C 39.9 °F /  4.4 °C 30.24 in /  1023.9 hPa WSW 13.0 mph /  20.9 km/h 16.0 mph /  25.7 km/h 85 % 0.00 in /  0 mm 72 W/m2
11:20 44.1 °F /  6.7 °C 39.9 °F /  4.4 °C 30.24 in /  1023.9 hPa NW 13.0 mph /  20.9 km/h 13.0 mph /  20.9 km/h 85 % 0.00 in /  0 mm 63 W/m2
11:30 44.2 °F /  6.8 °C 40.0 °F /  4.4 °C 30.24 in /  1023.9 hPa NW 11.0 mph /  17.7 km/h 11.0 mph /  17.7 km/h 85 % 0.00 in /  0 mm 74 W/m2
11:35 44.2 °F /  6.8 °C 40.0 °F /  4.4 °C 30.23 in /  1023.6 hPa WNW 11.0 mph /  17.7 km/h 15.0 mph /  24.1 km/h 85 % 0.00 in /  0 mm 84 W/m2
11:40 44.2 °F /  6.8 °C 40.0 °F /  4.4 °C 30.23 in /  1023.6 hPa WSW 14.0 mph /  22.5 km/h 21.0 mph /  33.8 km/h 85 % 0.00 in /  0 mm 83 W/m2
11:45 44.2 °F /  6.8 °C 40.0 °F /  4.4 °C 30.22 in /  1023.2 hPa NW 15.0 mph /  24.1 km/h 21.0 mph /  33.8 km/h 85 % 0.00 in /  0 mm 63 W/m2
11:50 44.2 °F /  6.8 °C 40.0 °F /  4.4 °C 30.22 in /  1023.2 hPa WNW 18.0 mph /  29 km/h 18.0 mph /  29 km/h 85 % 0.00 in /  0 mm 74 W/m2
12:00 44.1 °F /  6.7 °C 39.9 °F /  4.4 °C 30.22 in /  1023.2 hPa WNW 18.0 mph /  29 km/h 20.0 mph /  32.2 km/h 85 % 0.00 in /  0 mm 49 W/m2
12:05 44.1 °F /  6.7 °C 39.9 °F /  4.4 °C 30.22 in /  1023.2 hPa West 16.0 mph /  25.7 km/h 20.0 mph /  32.2 km/h 85 % 0.00 in /  0 mm 42 W/m2
12:10 44.0 °F /  6.7 °C 39.8 °F /  4.3 °C 30.21 in /  1022.9 hPa NW 12.0 mph /  19.3 km/h 12.0 mph /  19.3 km/h 85 % 0.00 in /  0 mm 53 W/m2
12:15 44.0 °F /  6.7 °C 39.8 °F /  4.3 °C 30.20 in /  1022.6 hPa WNW 14.0 mph /  22.5 km/h 14.0 mph /  22.5 km/h 85 % 0.00 in /  0 mm 74 W/m2
12:20 44.1 °F /  6.7 °C 39.9 °F /  4.4 °C 30.20 in /  1022.6 hPa NNW 17.0 mph /  27.4 km/h 17.0 mph /  27.4 km/h 85 % 0.00 in /  0 mm 107 W/m2
12:25 44.2 °F /  6.8 °C 40.0 °F /  4.4 °C 30.20 in /  1022.6 hPa West 19.0 mph /  30.6 km/h 19.0 mph /  30.6 km/h 85 % 0.00 in /  0 mm 160 W/m2
12:35 44.5 °F /  6.9 °C 40.0 °F /  4.4 °C 30.20 in /  1022.6 hPa NW 24.0 mph /  38.6 km/h 24.0 mph /  38.6 km/h 84 % 0.00 in /  0 mm 125 W/m2
12:40 44.5 °F /  6.9 °C 40.0 °F /  4.4 °C 30.20 in /  1022.6 hPa NW 24.0 mph /  38.6 km/h 24.0 mph /  38.6 km/h 84 % 0.00 in /  0 mm 114 W/m2
12:45 44.4 °F /  6.9 °C 39.9 °F /  4.4 °C 30.20 in /  1022.6 hPa West 24.0 mph /  38.6 km/h 24.0 mph /  38.6 km/h 84 % 0.00 in /  0 mm 65 W/m2
12:50 44.2 °F /  6.8 °C 40.0 °F /  4.4 °C 30.20 in /  1022.6 hPa WNW 24.0 mph /  38.6 km/h 24.0 mph /  38.6 km/h 85 % 0.00 in /  0 mm 63 W/m2
12:55 44.1 °F /  6.7 °C 40.2 °F /  4.6 °C 30.20 in /  1022.6 hPa WNW 21.0 mph /  33.8 km/h 27.0 mph /  43.5 km/h 86 % 0.00 in /  0 mm 90 W/m2
13:05 44.2 °F /  6.8 °C 40.3 °F /  4.6 °C 30.19 in /  1022.2 hPa NW 19.0 mph /  30.6 km/h 20.0 mph /  32.2 km/h 86 % 0.00 in /  0 mm 104 W/m2
13:10 44.3 °F /  6.8 °C 40.4 °F /  4.7 °C 30.19 in /  1022.2 hPa NW 20.0 mph /  32.2 km/h 20.0 mph /  32.2 km/h 86 % 0.00 in /  0 mm 98 W/m2
13:15 44.4 °F /  6.9 °C 40.2 °F /  4.6 °C 30.19 in /  1022.2 hPa WNW 19.0 mph /  30.6 km/h 25.0 mph /  40.2 km/h 85 % 0.00 in /  0 mm 118 W/m2
13:20 44.5 °F /  6.9 °C 40.3 °F /  4.6 °C 30.19 in /  1022.2 hPa WNW 21.0 mph /  33.8 km/h 24.0 mph /  38.6 km/h 85 % 0.00 in /  0 mm 91 W/m2
13:25 44.6 °F /  7 °C 40.4 °F /  4.7 °C 30.18 in /  1021.9 hPa WNW 20.0 mph /  32.2 km/h 24.0 mph /  38.6 km/h 85 % 0.00 in /  0 mm 76 W/m2
13:30 44.6 °F /  7 °C 40.4 °F /  4.7 °C 30.18 in /  1021.9 hPa NW 20.0 mph /  32.2 km/h 20.0 mph /  32.2 km/h 85 % 0.00 in /  0 mm 58 W/m2
13:40 44.5 °F /  6.9 °C 40.3 °F /  4.6 °C 30.18 in /  1021.9 hPa West 18.0 mph /  29 km/h 18.0 mph /  29 km/h 85 % 0.00 in /  0 mm 42 W/m2
13:45 44.5 °F /  6.9 °C 40.3 °F /  4.6 °C 30.19 in /  1022.2 hPa WNW 15.0 mph /  24.1 km/h 18.0 mph /  29 km/h 85 % 0.00 in /  0 mm 33 W/m2
13:50 44.4 °F /  6.9 °C 40.2 °F /  4.6 °C 30.19 in /  1022.2 hPa NW 16.0 mph /  25.7 km/h 23.0 mph /  37 km/h 85 % 0.00 in /  0 mm 32 W/m2
13:55 44.4 °F /  6.9 °C 40.2 °F /  4.6 °C 30.19 in /  1022.2 hPa West 18.0 mph /  29 km/h 23.0 mph /  37 km/h 85 % 0.00 in /  0 mm 37 W/m2
14:00 44.4 °F /  6.9 °C 40.2 °F /  4.6 °C 30.19 in /  1022.2 hPa NW 17.0 mph /  27.4 km/h 21.0 mph /  33.8 km/h 85 % 0.00 in /  0 mm 35 W/m2
14:10 44.4 °F /  6.9 °C 39.9 °F /  4.4 °C 30.19 in /  1022.2 hPa NW 17.0 mph /  27.4 km/h 17.0 mph /  27.4 km/h 84 % 0.00 in /  0 mm 33 W/m2
14:15 44.4 °F /  6.9 °C 40.2 °F /  4.6 °C 30.19 in /  1022.2 hPa NW 15.0 mph /  24.1 km/h 17.0 mph /  27.4 km/h 85 % 0.00 in /  0 mm 30 W/m2
14:20 44.3 °F /  6.8 °C 40.1 °F /  4.5 °C 30.19 in /  1022.2 hPa NW 14.0 mph /  22.5 km/h 23.0 mph /  37 km/h 85 % 0.00 in /  0 mm 42 W/m2
14:25 44.3 °F /  6.8 °C 40.1 °F /  4.5 °C 30.19 in /  1022.2 hPa NW 15.0 mph /  24.1 km/h 23.0 mph /  37 km/h 85 % 0.00 in /  0 mm 37 W/m2
14:30 44.3 °F /  6.8 °C 40.1 °F /  4.5 °C 30.19 in /  1022.2 hPa West 15.0 mph /  24.1 km/h 16.0 mph /  25.7 km/h 85 % 0.00 in /  0 mm 33 W/m2
14:40 44.2 °F /  6.8 °C 40.3 °F /  4.6 °C 30.20 in /  1022.6 hPa WNW 13.0 mph /  20.9 km/h 13.0 mph /  20.9 km/h 86 % 0.00 in /  0 mm 28 W/m2
14:45 44.2 °F /  6.8 °C 40.3 °F /  4.6 °C 30.20 in /  1022.6 hPa West 12.0 mph /  19.3 km/h 13.0 mph /  20.9 km/h 86 % 0.00 in /  0 mm 26 W/m2
14:50 44.2 °F /  6.8 °C 40.3 °F /  4.6 °C 30.20 in /  1022.6 hPa NW 13.0 mph /  20.9 km/h 13.0 mph /  20.9 km/h 86 % 0.00 in /  0 mm 30 W/m2
14:55 44.2 °F /  6.8 °C 40.3 °F /  4.6 °C 30.20 in /  1022.6 hPa WNW 14.0 mph /  22.5 km/h 16.0 mph /  25.7 km/h 86 % 0.00 in /  0 mm 26 W/m2
15:00 44.2 °F /  6.8 °C 40.3 °F /  4.6 °C 30.20 in /  1022.6 hPa WNW 14.0 mph /  22.5 km/h 14.0 mph /  22.5 km/h 86 % 0.00 in /  0 mm 21 W/m2
15:05 44.2 °F /  6.8 °C 40.3 °F /  4.6 °C 30.20 in /  1022.6 hPa West 13.0 mph /  20.9 km/h 14.0 mph /  22.5 km/h 86 % 0.00 in /  0 mm 16 W/m2
15:10 44.2 °F /  6.8 °C 40.3 °F /  4.6 °C 30.20 in /  1022.6 hPa NW 12.0 mph /  19.3 km/h 12.0 mph /  19.3 km/h 86 % 0.00 in /  0 mm 19 W/m2
15:20 44.1 °F /  6.7 °C 40.2 °F /  4.6 °C 30.20 in /  1022.6 hPa NW 11.0 mph /  17.7 km/h 13.0 mph /  20.9 km/h 86 % 0.00 in /  0 mm 12 W/m2
15:25 44.1 °F /  6.7 °C 40.2 °F /  4.6 °C 30.20 in /  1022.6 hPa NW 14.0 mph /  22.5 km/h 14.0 mph /  22.5 km/h 86 % 0.00 in /  0 mm 14 W/m2
15:30 44.1 °F /  6.7 °C 40.2 °F /  4.6 °C 30.20 in /  1022.6 hPa NW 15.0 mph /  24.1 km/h 18.0 mph /  29 km/h 86 % 0.00 in /  0 mm 11 W/m2
15:35 44.1 °F /  6.7 °C 40.2 °F /  4.6 °C 30.20 in /  1022.6 hPa WNW 16.0 mph /  25.7 km/h 24.0 mph /  38.6 km/h 86 % 0.00 in /  0 mm 11 W/m2
15:40 44.0 °F /  6.7 °C 40.1 °F /  4.5 °C 30.20 in /  1022.6 hPa WNW 16.0 mph /  25.7 km/h 16.0 mph /  25.7 km/h 86 % 0.00 in /  0 mm 7 W/m2
15:50 43.9 °F /  6.6 °C 40.3 °F /  4.6 °C 30.18 in /  1021.9 hPa West 15.0 mph /  24.1 km/h 15.0 mph /  24.1 km/h 87 % 0.00 in /  0 mm 9 W/m2
15:55 43.9 °F /  6.6 °C 40.0 °F /  4.4 °C 30.18 in /  1021.9 hPa WNW 17.0 mph /  27.4 km/h 24.0 mph /  38.6 km/h 86 % 0.00 in /  0 mm 7 W/m2
16:00 43.9 °F /  6.6 °C 40.0 °F /  4.4 °C 30.18 in /  1021.9 hPa West 18.0 mph /  29 km/h 18.0 mph /  29 km/h 86 % 0.00 in /  0 mm 0 W/m2
16:05 43.8 °F /  6.6 °C 40.2 °F /  4.6 °C 30.18 in /  1021.9 hPa WNW 16.0 mph /  25.7 km/h 20.0 mph /  32.2 km/h 87 % 0.00 in /  0 mm 0 W/m2
16:10 43.8 °F /  6.6 °C 39.9 °F /  4.4 °C 30.18 in /  1021.9 hPa West 17.0 mph /  27.4 km/h 17.0 mph /  27.4 km/h 86 % 0.00 in /  0 mm 0 W/m2
16:15 43.8 °F /  6.6 °C 40.2 °F /  4.6 °C 30.18 in /  1021.9 hPa WNW 18.0 mph /  29 km/h 22.0 mph /  35.4 km/h 87 % 0.00 in /  0 mm 0 W/m2
16:25 43.8 °F /  6.6 °C 40.2 °F /  4.6 °C 30.18 in /  1021.9 hPa NW 16.0 mph /  25.7 km/h 20.0 mph /  32.2 km/h 87 % 0.00 in /  0 mm 0 W/m2
16:30 43.8 °F /  6.6 °C 40.2 °F /  4.6 °C 30.18 in /  1021.9 hPa NW 17.0 mph /  27.4 km/h 17.0 mph /  27.4 km/h 87 % 0.00 in /  0 mm 0 W/m2
16:35 43.7 °F /  6.5 °C 40.1 °F /  4.5 °C 30.18 in /  1021.9 hPa WNW 16.0 mph /  25.7 km/h 25.0 mph /  40.2 km/h 87 % 0.00 in /  0 mm 0 W/m2
16:40 43.8 °F /  6.6 °C 39.9 °F /  4.4 °C 30.18 in /  1021.9 hPa NW 15.0 mph /  24.1 km/h 15.0 mph /  24.1 km/h 86 % 0.00 in /  0 mm 0 W/m2
16:45 43.7 °F /  6.5 °C 39.8 °F /  4.3 °C 30.18 in /  1021.9 hPa WNW 16.0 mph /  25.7 km/h 26.0 mph /  41.8 km/h 86 % 0.00 in /  0 mm 0 W/m2
16:55 43.9 °F /  6.6 °C 39.7 °F /  4.3 °C 30.18 in /  1021.9 hPa WNW 17.0 mph /  27.4 km/h 25.0 mph /  40.2 km/h 85 % 0.00 in /  0 mm 0 W/m2
17:00 43.9 °F /  6.6 °C 39.7 °F /  4.3 °C 30.18 in /  1021.9 hPa WNW 18.0 mph /  29 km/h 23.0 mph /  37 km/h 85 % 0.00 in /  0 mm 0 W/m2
17:05 44.0 °F /  6.7 °C 39.8 °F /  4.3 °C 30.19 in /  1022.2 hPa WNW 18.0 mph /  29 km/h 23.0 mph /  37 km/h 85 % 0.00 in /  0 mm 0 W/m2
17:10 44.0 °F /  6.7 °C 39.8 °F /  4.3 °C 30.18 in /  1021.9 hPa WNW 15.0 mph /  24.1 km/h 15.0 mph /  24.1 km/h 85 % 0.00 in /  0 mm 0 W/m2
17:15 44.1 °F /  6.7 °C 39.9 °F /  4.4 °C 30.18 in /  1021.9 hPa WNW 16.0 mph /  25.7 km/h 20.0 mph /  32.2 km/h 85 % 0.00 in /  0 mm 0 W/m2
17:25 44.1 °F /  6.7 °C 39.6 °F /  4.2 °C 30.18 in /  1021.9 hPa NW 17.0 mph /  27.4 km/h 19.0 mph /  30.6 km/h 84 % 0.00 in /  0 mm 0 W/m2
17:30 44.1 °F /  6.7 °C 39.3 °F /  4.1 °C 30.18 in /  1021.9 hPa WNW 16.0 mph /  25.7 km/h 16.0 mph /  25.7 km/h 83 % 0.00 in /  0 mm 0 W/m2
17:35 44.1 °F /  6.7 °C 39.3 °F /  4.1 °C 30.17 in /  1021.6 hPa West 17.0 mph /  27.4 km/h 17.0 mph /  27.4 km/h 83 % 0.00 in /  0 mm 0 W/m2
17:45 44.3 °F /  6.8 °C 39.2 °F /  4 °C 30.15 in /  1020.9 hPa West 21.0 mph /  33.8 km/h 33.0 mph /  53.1 km/h 82 % 0.00 in /  0 mm 0 W/m2
17:50 44.3 °F /  6.8 °C 39.2 °F /  4 °C 30.14 in /  1020.5 hPa West 21.0 mph /  33.8 km/h 21.0 mph /  33.8 km/h 82 % 0.00 in /  0 mm 0 W/m2
17:55 44.3 °F /  6.8 °C 39.2 °F /  4 °C 30.14 in /  1020.5 hPa West 21.0 mph /  33.8 km/h 21.0 mph /  33.8 km/h 82 % 0.00 in /  0 mm 0 W/m2
18:00 44.4 °F /  6.9 °C 39.2 °F /  4 °C 30.15 in /  1020.9 hPa WNW 22.0 mph /  35.4 km/h 24.0 mph /  38.6 km/h 82 % 0.00 in /  0 mm 0 W/m2
18:10 44.3 °F /  6.8 °C 39.2 °F /  4 °C 30.15 in /  1020.9 hPa WNW 18.0 mph /  29 km/h 19.0 mph /  30.6 km/h 82 % 0.00 in /  0 mm 0 W/m2
18:15 44.2 °F /  6.8 °C 39.1 °F /  3.9 °C 30.16 in /  1021.2 hPa WNW 16.0 mph /  25.7 km/h 19.0 mph /  30.6 km/h 82 % 0.00 in /  0 mm 0 W/m2
18:20 44.3 °F /  6.8 °C 39.2 °F /  4 °C 30.16 in /  1021.2 hPa WNW 16.0 mph /  25.7 km/h 16.0 mph /  25.7 km/h 82 % 0.00 in /  0 mm 0 W/m2
18:25 44.2 °F /  6.8 °C 38.7 °F /  3.7 °C 30.17 in /  1021.6 hPa NW 16.0 mph /  25.7 km/h 25.0 mph /  40.2 km/h 81 % 0.00 in /  0 mm 0 W/m2
18:35 44.3 °F /  6.8 °C 38.8 °F /  3.8 °C 30.16 in /  1021.2 hPa WNW 15.0 mph /  24.1 km/h 22.0 mph /  35.4 km/h 81 % 0.00 in /  0 mm 0 W/m2
18:40 44.3 °F /  6.8 °C 39.2 °F /  4 °C 30.16 in /  1021.2 hPa WNW 15.0 mph /  24.1 km/h 20.0 mph /  32.2 km/h 82 % 0.00 in /  0 mm 0 W/m2
18:45 44.3 °F /  6.8 °C 39.2 °F /  4 °C 30.16 in /  1021.2 hPa NW 15.0 mph /  24.1 km/h 20.0 mph /  32.2 km/h 82 % 0.00 in /  0 mm 0 W/m2
18:50 44.3 °F /  6.8 °C 39.2 °F /  4 °C 30.16 in /  1021.2 hPa NW 15.0 mph /  24.1 km/h 15.0 mph /  24.1 km/h 82 % 0.00 in /  0 mm 0 W/m2
18:55 44.3 °F /  6.8 °C 39.2 °F /  4 °C 30.16 in /  1021.2 hPa NW 15.0 mph /  24.1 km/h 15.0 mph /  24.1 km/h 82 % 0.00 in /  0 mm 0 W/m2
19:00 44.4 °F /  6.9 °C 39.2 °F /  4 °C 30.15 in /  1020.9 hPa WNW 15.0 mph /  24.1 km/h 16.0 mph /  25.7 km/h 82 % 0.00 in /  0 mm 0 W/m2
19:10 44.5 °F /  6.9 °C 39.3 °F /  4.1 °C 30.15 in /  1020.9 hPa WNW 17.0 mph /  27.4 km/h 17.0 mph /  27.4 km/h 82 % 0.00 in /  0 mm 0 W/m2
19:15 44.6 °F /  7 °C 39.4 °F /  4.1 °C 30.16 in /  1021.2 hPa West 17.0 mph /  27.4 km/h 25.0 mph /  40.2 km/h 82 % 0.00 in /  0 mm 0 W/m2
19:20 44.7 °F /  7.1 °C 39.5 °F /  4.2 °C 30.16 in /  1021.2 hPa WNW 17.0 mph /  27.4 km/h 17.0 mph /  27.4 km/h 82 % 0.00 in /  0 mm 0 W/m2
19:25 44.7 °F /  7.1 °C 39.5 °F /  4.2 °C 30.16 in /  1021.2 hPa WNW 16.0 mph /  25.7 km/h 17.0 mph /  27.4 km/h 82 % 0.00 in /  0 mm 0 W/m2
19:30 44.7 °F /  7.1 °C 39.9 °F /  4.4 °C 30.16 in /  1021.2 hPa West 14.0 mph /  22.5 km/h 14.0 mph /  22.5 km/h 83 % 0.00 in /  0 mm 0 W/m2
19:40 44.7 °F /  7.1 °C 39.9 °F /  4.4 °C 30.15 in /  1020.9 hPa NW 16.0 mph /  25.7 km/h 16.0 mph /  25.7 km/h 83 % 0.00 in /  0 mm 0 W/m2
19:45 44.9 °F /  7.2 °C 40.0 °F /  4.4 °C 30.15 in /  1020.9 hPa WNW 16.0 mph /  25.7 km/h 19.0 mph /  30.6 km/h 83 % 0.00 in /  0 mm 0 W/m2
19:50 44.9 °F /  7.2 °C 40.0 °F /  4.4 °C 30.15 in /  1020.9 hPa West 16.0 mph /  25.7 km/h 16.0 mph /  25.7 km/h 83 % 0.00 in /  0 mm 0 W/m2
19:55 45.0 °F /  7.2 °C 40.1 °F /  4.5 °C 30.15 in /  1020.9 hPa NW 16.0 mph /  25.7 km/h 21.0 mph /  33.8 km/h 83 % 0.00 in /  0 mm 0 W/m2
20:00 45.0 °F /  7.2 °C 40.1 °F /  4.5 °C 30.15 in /  1020.9 hPa WNW 16.0 mph /  25.7 km/h 21.0 mph /  33.8 km/h 83 % 0.00 in /  0 mm 0 W/m2
20:05 45.0 °F /  7.2 °C 40.1 °F /  4.5 °C 30.16 in /  1021.2 hPa WNW 17.0 mph /  27.4 km/h 21.0 mph /  33.8 km/h 83 % 0.00 in /  0 mm 0 W/m2
20:15 45.0 °F /  7.2 °C 40.5 °F /  4.7 °C 30.16 in /  1021.2 hPa WNW 11.0 mph /  17.7 km/h 15.0 mph /  24.1 km/h 84 % 0.00 in /  0 mm 0 W/m2
20:20 44.9 °F /  7.2 °C 40.4 °F /  4.7 °C 30.16 in /  1021.2 hPa WNW 13.0 mph /  20.9 km/h 21.0 mph /  33.8 km/h 84 % 0.00 in /  0 mm 0 W/m2
20:25 45.0 °F /  7.2 °C 40.5 °F /  4.7 °C 30.16 in /  1021.2 hPa WNW 15.0 mph /  24.1 km/h 21.0 mph /  33.8 km/h 84 % 0.00 in /  0 mm 0 W/m2
20:30 45.0 °F /  7.2 °C 40.5 °F /  4.7 °C 30.16 in /  1021.2 hPa NW 15.0 mph /  24.1 km/h 15.0 mph /  24.1 km/h 84 % 0.00 in /  0 mm 0 W/m2
20:40 45.1 °F /  7.3 °C 40.6 °F /  4.8 °C 30.16 in /  1021.2 hPa NNW 16.0 mph /  25.7 km/h 16.0 mph /  25.7 km/h 84 % 0.00 in /  0 mm 0 W/m2
20:45 45.1 °F /  7.3 °C 40.6 °F /  4.8 °C 30.15 in /  1020.9 hPa West 18.0 mph /  29 km/h 26.0 mph /  41.8 km/h 84 % 0.00 in /  0 mm 0 W/m2
20:50 45.1 °F /  7.3 °C 40.6 °F /  4.8 °C 30.15 in /  1020.9 hPa WNW 19.0 mph /  30.6 km/h 19.0 mph /  30.6 km/h 84 % 0.00 in /  0 mm 0 W/m2
20:55 45.0 °F /  7.2 °C 40.8 °F /  4.9 °C 30.15 in /  1020.9 hPa WNW 18.0 mph /  29 km/h 19.0 mph /  30.6 km/h 85 % 0.00 in /  0 mm 0 W/m2
21:00 45.0 °F /  7.2 °C 40.8 °F /  4.9 °C 30.16 in /  1021.2 hPa WNW 16.0 mph /  25.7 km/h 22.0 mph /  35.4 km/h 85 % 0.00 in /  0 mm 0 W/m2
21:05 45.0 °F /  7.2 °C 40.8 °F /  4.9 °C 30.16 in /  1021.2 hPa NW 17.0 mph /  27.4 km/h 22.0 mph /  35.4 km/h 85 % 0.00 in /  0 mm 0 W/m2
21:15 45.1 °F /  7.3 °C 40.9 °F /  4.9 °C 30.16 in /  1021.2 hPa West 18.0 mph /  29 km/h 22.0 mph /  35.4 km/h 85 % 0.00 in /  0 mm 0 W/m2
21:20 45.0 °F /  7.2 °C 40.8 °F /  4.9 °C 30.15 in /  1020.9 hPa NW 18.0 mph /  29 km/h 21.0 mph /  33.8 km/h 85 % 0.00 in /  0 mm 0 W/m2
21:25 45.0 °F /  7.2 °C 40.8 °F /  4.9 °C 30.15 in /  1020.9 hPa WNW 17.0 mph /  27.4 km/h 23.0 mph /  37 km/h 85 % 0.00 in /  0 mm 0 W/m2
21:30 45.0 °F /  7.2 °C 40.8 °F /  4.9 °C 30.15 in /  1020.9 hPa WNW 17.0 mph /  27.4 km/h 17.0 mph /  27.4 km/h 85 % 0.00 in /  0 mm 0 W/m2
21:35 45.0 °F /  7.2 °C 40.8 °F /  4.9 °C 30.16 in /  1021.2 hPa WNW 18.0 mph /  29 km/h 18.0 mph /  29 km/h 85 % 0.00 in /  0 mm 0 W/m2
21:40 45.1 °F /  7.3 °C 41.2 °F /  5.1 °C 30.16 in /  1021.2 hPa WNW 18.0 mph /  29 km/h 18.0 mph /  29 km/h 86 % 0.00 in /  0 mm 0 W/m2
21:50 45.1 °F /  7.3 °C 41.2 °F /  5.1 °C 30.17 in /  1021.6 hPa WNW 15.0 mph /  24.1 km/h 15.0 mph /  24.1 km/h 86 % 0.00 in /  0 mm 0 W/m2
21:55 45.1 °F /  7.3 °C 41.2 °F /  5.1 °C 30.17 in /  1021.6 hPa NW 15.0 mph /  24.1 km/h 24.0 mph /  38.6 km/h 86 % 0.00 in /  0 mm 0 W/m2
22:00 45.2 °F /  7.3 °C 41.3 °F /  5.2 °C 30.16 in /  1021.2 hPa West 15.0 mph /  24.1 km/h 20.0 mph /  32.2 km/h 86 % 0.00 in /  0 mm 0 W/m2
22:05 45.2 °F /  7.3 °C 41.3 °F /  5.2 °C 30.17 in /  1021.6 hPa NW 15.0 mph /  24.1 km/h 20.0 mph /  32.2 km/h 86 % 0.00 in /  0 mm 0 W/m2
22:10 45.2 °F /  7.3 °C 41.3 °F /  5.2 °C 30.16 in /  1021.2 hPa NW 15.0 mph /  24.1 km/h 15.0 mph /  24.1 km/h 86 % 0.00 in /  0 mm 0 W/m2
22:15 45.2 °F /  7.3 °C 41.3 °F /  5.2 °C 30.16 in /  1021.2 hPa NW 14.0 mph /  22.5 km/h 20.0 mph /  32.2 km/h 86 % 0.00 in /  0 mm 0 W/m2
22:25 45.2 °F /  7.3 °C 41.3 °F /  5.2 °C 30.16 in /  1021.2 hPa WNW 15.0 mph /  24.1 km/h 15.0 mph /  24.1 km/h 86 % 0.00 in /  0 mm 0 W/m2
22:30 45.3 °F /  7.4 °C 41.4 °F /  5.2 °C 30.16 in /  1021.2 hPa West 17.0 mph /  27.4 km/h 18.0 mph /  29 km/h 86 % 0.00 in /  0 mm 0 W/m2
22:35 45.3 °F /  7.4 °C 41.4 °F /  5.2 °C 30.16 in /  1021.2 hPa WNW 16.0 mph /  25.7 km/h 19.0 mph /  30.6 km/h 86 % 0.00 in /  0 mm 0 W/m2
22:40 45.2 °F /  7.3 °C 41.6 °F /  5.3 °C 30.16 in /  1021.2 hPa WNW 14.0 mph /  22.5 km/h 14.0 mph /  22.5 km/h 87 % 0.00 in /  0 mm 0 W/m2
22:45 45.2 °F /  7.3 °C 41.6 °F /  5.3 °C 30.16 in /  1021.2 hPa NW 15.0 mph /  24.1 km/h 15.0 mph /  24.1 km/h 87 % 0.00 in /  0 mm 0 W/m2
22:50 45.2 °F /  7.3 °C 41.6 °F /  5.3 °C 30.16 in /  1021.2 hPa WNW 15.0 mph /  24.1 km/h 15.0 mph /  24.1 km/h 87 % 0.00 in /  0 mm 0 W/m2
22:55 45.2 °F /  7.3 °C 41.6 °F /  5.3 °C 30.16 in /  1021.2 hPa WNW 16.0 mph /  25.7 km/h 16.0 mph /  25.7 km/h 87 % 0.00 in /  0 mm 0 W/m2
23:05 45.2 °F /  7.3 °C 41.6 °F /  5.3 °C 30.17 in /  1021.6 hPa WNW 14.0 mph /  22.5 km/h 15.0 mph /  24.1 km/h 87 % 0.00 in /  0 mm 0 W/m2
23:10 45.2 °F /  7.3 °C 41.6 °F /  5.3 °C 30.17 in /  1021.6 hPa WNW 13.0 mph /  20.9 km/h 13.0 mph /  20.9 km/h 87 % 0.00 in /  0 mm 0 W/m2
23:15 45.2 °F /  7.3 °C 41.6 °F /  5.3 °C 30.17 in /  1021.6 hPa WNW 12.0 mph /  19.3 km/h 16.0 mph /  25.7 km/h 87 % 0.00 in /  0 mm 0 W/m2
23:20 45.2 °F /  7.3 °C 41.6 °F /  5.3 °C 30.17 in /  1021.6 hPa NW 14.0 mph /  22.5 km/h 16.0 mph /  25.7 km/h 87 % 0.00 in /  0 mm 0 W/m2
23:25 45.2 °F /  7.3 °C 41.6 °F /  5.3 °C 30.17 in /  1021.6 hPa WNW 15.0 mph /  24.1 km/h 16.0 mph /  25.7 km/h 87 % 0.00 in /  0 mm 0 W/m2
23:35 45.2 °F /  7.3 °C 41.9 °F /  5.5 °C 30.17 in /  1021.6 hPa WNW 15.0 mph /  24.1 km/h 20.0 mph /  32.2 km/h 88 % 0.00 in /  0 mm 0 W/m2
23:40 45.3 °F /  7.4 °C 42.0 °F /  5.6 °C 30.17 in /  1021.6 hPa WNW 16.0 mph /  25.7 km/h 20.0 mph /  32.2 km/h 88 % 0.00 in /  0 mm 0 W/m2
23:45 45.3 °F /  7.4 °C 42.0 °F /  5.6 °C 30.16 in /  1021.2 hPa WNW 15.0 mph /  24.1 km/h 20.0 mph /  32.2 km/h 88 % 0.00 in /  0 mm 0 W/m2
23:50 45.3 °F /  7.4 °C 42.0 °F /  5.6 °C 30.16 in /  1021.2 hPa WNW 14.0 mph /  22.5 km/h 14.0 mph /  22.5 km/h 88 % 0.00 in /  0 mm 0 W/m2
23:55 45.3 °F /  7.4 °C 42.0 °F /  5.6 °C 30.17 in /  1021.6 hPa WNW 14.0 mph /  22.5 km/h 14.0 mph /  22.5 km/h 88 % 0.00 in /  0 mm 0 W/m2
Delerius-Weather
Compliments of Weather Underground - 2 mb

Data updates at regular intervals.